createdAt,value
2022-08-19T00:01:52.693Z,21.33
2022-08-19T00:04:28.109Z,21.26
2022-08-19T00:06:55.313Z,21.17
2022-08-19T00:09:29.091Z,21.16
2022-08-19T00:11:56.645Z,21.04
2022-08-19T00:14:31.104Z,21.09
2022-08-19T00:17:11.155Z,21.23
2022-08-19T00:19:38.362Z,21.23
2022-08-19T00:22:06.239Z,21.10
2022-08-19T00:24:40.077Z,21.04
2022-08-19T00:27:26.254Z,20.95
2022-08-19T00:30:00.081Z,20.82
2022-08-19T00:32:33.114Z,20.77
2022-08-19T00:35:08.088Z,20.71
2022-08-19T00:37:36.007Z,20.70
2022-08-19T00:40:10.153Z,20.82
2022-08-19T00:42:36.929Z,20.99
2022-08-19T00:45:16.098Z,20.95
2022-08-19T00:47:42.745Z,20.82
2022-08-19T00:50:16.248Z,20.76
2022-08-19T00:52:46.557Z,20.71
2022-08-19T00:55:32.082Z,20.68
2022-08-19T00:58:07.942Z,20.67
2022-08-19T01:00:44.254Z,20.66
2022-08-19T01:03:12.172Z,20.61
2022-08-19T01:05:47.091Z,20.59
2022-08-19T01:08:23.069Z,20.52
2022-08-19T01:10:53.109Z,20.48
2022-08-19T01:13:48.929Z,20.49
2022-08-19T01:16:24.923Z,20.50
2022-08-19T01:18:58.479Z,20.51
2022-08-19T01:21:45.488Z,20.49
2022-08-19T01:24:12.279Z,20.52
2022-08-19T01:26:47.079Z,20.55
2022-08-19T01:29:13.877Z,20.50
2022-08-19T01:31:48.168Z,20.49
2022-08-19T01:34:14.762Z,20.53
2022-08-19T01:36:50.093Z,20.54
2022-08-19T01:39:22.508Z,20.53
2022-08-19T01:41:56.047Z,20.50
2022-08-19T01:44:25.042Z,20.48
2022-08-19T01:46:59.062Z,20.48
2022-08-19T01:49:34.104Z,20.50
2022-08-19T01:52:01.230Z,20.53
2022-08-19T01:54:35.077Z,20.57
2022-08-19T01:57:11.086Z,20.54
2022-08-19T01:59:38.223Z,20.55
2022-08-19T02:02:17.130Z,20.67
2022-08-19T02:04:43.662Z,20.56
2022-08-19T02:07:17.077Z,20.53
2022-08-19T02:10:09.395Z,20.50
2022-08-19T02:12:59.084Z,20.50
2022-08-19T02:15:33.276Z,20.52
2022-08-19T02:18:07.058Z,20.50
2022-08-19T02:20:33.817Z,20.49
2022-08-19T02:23:13.618Z,20.45
2022-08-19T02:25:41.003Z,20.46
2022-08-19T02:28:18.387Z,20.49
2022-08-19T02:30:46.170Z,20.47
2022-08-19T02:33:19.053Z,20.41
2022-08-19T02:35:46.247Z,20.30
2022-08-19T02:38:35.227Z,20.25
2022-08-19T02:41:04.420Z,20.28
2022-08-19T02:43:39.080Z,20.31
2022-08-19T02:46:13.404Z,20.33
2022-08-19T02:48:47.126Z,20.28
2022-08-19T02:51:17.309Z,20.28
2022-08-19T02:53:51.095Z,20.28
2022-08-19T02:56:18.558Z,20.37
2022-08-19T02:58:52.051Z,20.44
2022-08-19T03:01:27.183Z,20.43
2022-08-19T03:04:01.057Z,20.34
2022-08-19T03:06:27.693Z,20.19
2022-08-19T03:09:01.067Z,20.22
2022-08-19T03:11:31.985Z,20.09
2022-08-19T03:14:14.075Z,19.85
2022-08-19T03:16:48.348Z,19.92
2022-08-19T03:19:23.048Z,19.94
2022-08-19T03:21:50.140Z,20.03
2022-08-19T03:24:25.057Z,20.13
2022-08-19T03:27:03.078Z,20.34
2022-08-19T03:29:32.691Z,20.38
2022-08-19T03:32:19.845Z,20.36
2022-08-19T03:35:04.192Z,20.36
2022-08-19T03:37:37.045Z,20.34
2022-08-19T03:40:14.439Z,20.31
2022-08-19T03:42:48.920Z,20.30
2022-08-19T03:45:23.033Z,20.32
2022-08-19T03:47:56.382Z,20.43
2022-08-19T03:50:22.932Z,20.43
2022-08-19T03:52:58.077Z,20.32
2022-08-19T03:55:31.066Z,20.30
2022-08-19T03:58:04.060Z,20.36
2022-08-19T04:00:38.365Z,20.31
2022-08-19T04:03:11.058Z,20.39
2022-08-19T04:05:38.967Z,20.54
2022-08-19T04:08:14.032Z,20.49
2022-08-19T04:10:41.660Z,20.51
2022-08-19T04:13:16.060Z,20.49
2022-08-19T04:15:56.054Z,20.52
2022-08-19T04:18:22.673Z,20.29
2022-08-19T04:20:56.044Z,20.22
2022-08-19T04:23:22.757Z,20.15
2022-08-19T04:25:56.046Z,20.01
2022-08-19T04:28:22.703Z,20.05
2022-08-19T04:30:57.031Z,20.07
2022-08-19T04:33:26.687Z,20.13
2022-08-19T04:36:02.042Z,20.04
2022-08-19T04:38:29.001Z,20.29
2022-08-19T04:41:21.237Z,20.53
2022-08-19T04:43:56.042Z,20.67
2022-08-19T04:46:40.539Z,20.68
2022-08-19T04:49:16.051Z,20.77
2022-08-19T04:51:50.078Z,20.74
2022-08-19T04:54:31.008Z,20.65
2022-08-19T04:57:14.037Z,20.70
2022-08-19T04:59:47.030Z,20.64
2022-08-19T05:02:13.613Z,20.61
2022-08-19T05:04:47.062Z,20.63
2022-08-19T05:07:20.050Z,20.60
2022-08-19T05:09:58.966Z,20.61
2022-08-19T05:12:29.003Z,20.61
2022-08-19T05:15:04.053Z,20.61
2022-08-19T05:17:44.069Z,20.70
2022-08-19T05:20:30.031Z,20.74
2022-08-19T05:23:03.056Z,20.86
2022-08-19T05:25:52.228Z,20.81
2022-08-19T05:28:26.048Z,20.65
2022-08-19T05:30:52.979Z,20.52
2022-08-19T05:33:19.856Z,20.37
2022-08-19T05:35:54.028Z,20.29
2022-08-19T05:38:21.055Z,20.31
2022-08-19T05:40:56.031Z,20.31
2022-08-19T05:43:29.028Z,20.38
2022-08-19T05:46:03.038Z,20.36
2022-08-19T05:48:29.984Z,20.36
2022-08-19T05:51:04.050Z,20.38
2022-08-19T05:53:30.741Z,20.38
2022-08-19T05:56:04.016Z,20.35
2022-08-19T05:58:30.663Z,20.37
2022-08-19T06:01:04.034Z,20.34
2022-08-19T06:03:30.895Z,20.39
2022-08-19T06:06:07.061Z,20.41
2022-08-19T06:08:41.189Z,20.48
2022-08-19T06:11:20.043Z,20.54
2022-08-19T06:14:08.012Z,20.71
2022-08-19T06:16:36.197Z,20.84
2022-08-19T06:19:11.045Z,20.82
2022-08-19T06:21:39.019Z,20.84
2022-08-19T06:24:14.037Z,20.88
2022-08-19T06:26:43.263Z,20.90
2022-08-19T06:29:23.786Z,20.95
2022-08-19T06:31:52.250Z,20.91
2022-08-19T06:34:26.016Z,20.87
2022-08-19T06:36:53.191Z,20.94
2022-08-19T06:39:29.059Z,20.93
2022-08-19T06:42:04.172Z,20.98
2022-08-19T06:44:35.335Z,20.95
2022-08-19T06:47:23.130Z,20.98
2022-08-19T06:49:51.548Z,21.00
2022-08-19T06:52:25.052Z,21.05
2022-08-19T06:54:55.723Z,21.12
2022-08-19T06:57:31.225Z,21.20
2022-08-19T06:59:57.766Z,21.29
2022-08-19T07:02:27.393Z,21.35
2022-08-19T07:05:01.280Z,21.44
2022-08-19T07:07:27.904Z,21.46
2022-08-19T07:10:03.698Z,21.50
2022-08-19T07:12:36.134Z,21.62
2022-08-19T07:15:16.044Z,21.63
2022-08-19T07:17:44.374Z,21.70
2022-08-19T07:20:18.516Z,21.71
2022-08-19T07:22:46.467Z,21.77
2022-08-19T07:25:21.115Z,21.76
2022-08-19T07:27:59.522Z,21.79
2022-08-19T07:30:35.033Z,21.74
2022-08-19T07:33:08.045Z,21.76
2022-08-19T07:35:34.885Z,21.79
2022-08-19T07:38:10.055Z,21.82
2022-08-19T07:40:36.695Z,21.86
2022-08-19T07:43:13.618Z,21.94
2022-08-19T07:45:40.956Z,22.05
2022-08-19T07:48:14.077Z,22.08
2022-08-19T07:50:47.026Z,22.21
2022-08-19T07:53:15.013Z,22.25
2022-08-19T07:55:48.249Z,22.19
2022-08-19T07:58:23.071Z,22.16
2022-08-19T08:00:57.043Z,22.27
2022-08-19T08:03:46.485Z,22.37
2022-08-19T08:06:39.192Z,22.24
2022-08-19T08:09:12.342Z,22.27
2022-08-19T08:11:38.898Z,22.31
2022-08-19T08:14:29.601Z,22.39
2022-08-19T08:17:13.046Z,22.36
2022-08-19T08:19:42.043Z,22.52
2022-08-19T08:22:16.068Z,22.57
2022-08-19T08:24:49.013Z,22.55
2022-08-19T08:27:26.367Z,22.49
2022-08-19T08:30:00.024Z,22.66
2022-08-19T08:32:31.202Z,22.76
2022-08-19T08:35:05.014Z,22.77
2022-08-19T08:37:38.011Z,22.82
2022-08-19T08:40:15.111Z,22.96
2022-08-19T08:42:47.046Z,22.99
2022-08-19T08:45:23.059Z,22.99
2022-08-19T08:47:53.200Z,23.00
2022-08-19T08:50:30.234Z,23.00
2022-08-19T08:52:58.131Z,23.07
2022-08-19T08:55:36.939Z,23.14
2022-08-19T08:58:12.996Z,23.28
2022-08-19T09:00:48.018Z,23.31
2022-08-19T09:03:32.053Z,23.32
2022-08-19T09:06:12.261Z,23.40
2022-08-19T09:08:45.181Z,23.48
2022-08-19T09:11:42.843Z,23.48
2022-08-19T09:14:51.843Z,23.51
2022-08-19T09:17:19.802Z,23.56
2022-08-19T09:20:01.598Z,23.54
2022-08-19T09:22:28.401Z,23.53
2022-08-19T09:25:02.033Z,23.54
2022-08-19T09:27:41.731Z,23.55
2022-08-19T09:30:19.010Z,23.64
2022-08-19T09:32:46.372Z,23.65
2022-08-19T09:35:20.016Z,23.73
2022-08-19T09:37:46.564Z,23.82
2022-08-19T09:40:20.155Z,23.88
2022-08-19T09:42:49.752Z,23.97
2022-08-19T09:45:25.022Z,23.98
2022-08-19T09:47:54.303Z,23.97
2022-08-19T09:50:28.979Z,24.10
2022-08-19T09:53:02.011Z,23.98
2022-08-19T09:55:34.993Z,23.96
2022-08-19T09:58:02.140Z,23.91
2022-08-19T10:00:36.018Z,23.87
2022-08-19T10:03:02.636Z,23.95
2022-08-19T10:05:55.406Z,23.86
2022-08-19T10:08:23.895Z,23.91
2022-08-19T10:11:00.025Z,23.97
2022-08-19T10:13:53.997Z,24.11
2022-08-19T10:16:39.733Z,24.20
2022-08-19T10:19:06.590Z,24.30
2022-08-19T10:21:42.024Z,24.33
2022-08-19T10:24:09.720Z,24.40
2022-08-19T10:26:45.009Z,24.50
2022-08-19T10:29:13.547Z,24.62
2022-08-19T10:32:09.391Z,24.72
2022-08-19T10:34:37.837Z,24.75
2022-08-19T10:37:28.822Z,24.80
2022-08-19T10:40:05.061Z,24.89
2022-08-19T10:42:32.320Z,25.01
2022-08-19T10:45:06.008Z,25.25
2022-08-19T10:47:33.956Z,25.34
2022-08-19T10:50:28.683Z,25.39
2022-08-19T10:52:56.548Z,25.28
2022-08-19T10:55:48.999Z,25.24
2022-08-19T10:58:16.765Z,25.23
2022-08-19T11:00:50.998Z,25.31
2022-08-19T11:03:23.991Z,25.50
2022-08-19T11:06:11.010Z,25.59
2022-08-19T11:08:38.764Z,25.63
2022-08-19T11:11:13.005Z,25.69
2022-08-19T11:13:46.991Z,25.68
2022-08-19T11:16:22.560Z,25.70
2022-08-19T11:18:57.994Z,25.78
2022-08-19T11:21:31.489Z,25.81
2022-08-19T11:24:05.980Z,25.83
2022-08-19T11:26:33.770Z,25.90
2022-08-19T11:29:07.995Z,25.96
2022-08-19T11:31:43.997Z,26.02
2022-08-19T11:34:12.943Z,26.23
2022-08-19T11:36:48.082Z,26.16
2022-08-19T11:39:16.272Z,26.24
2022-08-19T11:41:51.003Z,26.23
2022-08-19T11:44:17.892Z,26.26
2022-08-19T11:46:53.998Z,26.28
2022-08-19T11:49:20.929Z,26.25
2022-08-19T11:51:54.985Z,26.23
2022-08-19T11:54:27.986Z,26.22
2022-08-19T11:57:01.177Z,26.16
2022-08-19T11:59:37.060Z,26.12
2022-08-19T12:02:12.281Z,26.20
2022-08-19T12:04:38.816Z,26.15
2022-08-19T12:07:11.979Z,26.21
2022-08-19T12:09:42.865Z,26.22
2022-08-19T12:12:16.014Z,26.24
2022-08-19T12:14:49.746Z,26.15
2022-08-19T12:17:22.976Z,26.08
2022-08-19T12:19:49.686Z,26.05
2022-08-19T12:22:23.009Z,26.01
2022-08-19T12:24:51.883Z,26.06
2022-08-19T12:27:40.532Z,26.09
2022-08-19T12:30:16.009Z,26.04
2022-08-19T12:32:48.988Z,26.10
2022-08-19T12:35:15.514Z,26.15
2022-08-19T12:37:56.806Z,26.04
2022-08-19T12:40:24.387Z,26.16
2022-08-19T12:43:00.008Z,26.30
2022-08-19T12:45:26.513Z,26.37
2022-08-19T12:48:01.007Z,26.52
2022-08-19T12:50:31.596Z,26.60
2022-08-19T12:52:59.053Z,26.50
2022-08-19T12:55:33.027Z,26.51
2022-08-19T12:58:02.424Z,26.44
2022-08-19T13:00:36.043Z,26.57
2022-08-19T13:03:03.039Z,26.85
2022-08-19T13:05:36.984Z,27.27
2022-08-19T13:08:09.993Z,27.63
2022-08-19T13:10:43.982Z,27.87
2022-08-19T13:13:17.991Z,27.86
2022-08-19T13:15:52.994Z,27.95
2022-08-19T13:18:26.489Z,28.30
2022-08-19T13:21:00.988Z,28.11
2022-08-19T13:23:27.531Z,28.15
2022-08-19T13:26:04.995Z,28.36
2022-08-19T13:28:59.066Z,28.28
2022-08-19T13:31:45.873Z,28.39
2022-08-19T13:34:19.015Z,28.43
2022-08-19T13:36:45.861Z,28.32
2022-08-19T13:39:19.997Z,28.48
2022-08-19T13:41:56.999Z,28.44
2022-08-19T13:44:32.008Z,28.59
2022-08-19T13:47:12.985Z,28.73
2022-08-19T13:49:39.485Z,28.79
2022-08-19T13:52:13.013Z,28.87
2022-08-19T13:54:39.546Z,29.05
2022-08-19T13:57:12.983Z,29.09
2022-08-19T13:59:39.482Z,28.88
2022-08-19T14:02:06.504Z,28.86
2022-08-19T14:04:39.981Z,28.83
2022-08-19T14:07:12.985Z,29.07
2022-08-19T14:09:39.502Z,29.38
2022-08-19T14:12:12.988Z,29.50
2022-08-19T14:14:47.123Z,29.45
2022-08-19T14:17:26.987Z,29.66
2022-08-19T14:20:10.776Z,29.88
2022-08-19T14:22:45.181Z,30.04
2022-08-19T14:25:13.347Z,30.08
2022-08-19T14:27:46.997Z,30.34
2022-08-19T14:30:15.366Z,30.43
2022-08-19T14:32:51.069Z,30.76
2022-08-19T14:35:17.840Z,30.72
2022-08-19T14:37:53.004Z,30.51
2022-08-19T14:40:23.804Z,30.16
2022-08-19T14:42:56.979Z,29.97
2022-08-19T14:45:23.556Z,29.69
2022-08-19T14:47:53.644Z,29.42
2022-08-19T14:50:27.159Z,29.18
2022-08-19T14:52:59.689Z,29.37
2022-08-19T14:55:32.973Z,29.51
2022-08-19T14:57:59.815Z,29.33
2022-08-19T15:00:34.981Z,29.06
2022-08-19T15:03:03.620Z,28.85
2022-08-19T15:05:36.985Z,28.59
2022-08-19T15:08:10.989Z,28.37
2022-08-19T15:10:46.988Z,28.09
2022-08-19T15:13:13.596Z,27.88
2022-08-19T15:15:55.383Z,27.67
2022-08-19T15:18:22.763Z,27.32
2022-08-19T15:20:56.014Z,27.02
2022-08-19T15:23:29.051Z,26.02
2022-08-19T15:26:02.998Z,24.61
2022-08-19T15:28:31.107Z,23.54
2022-08-19T15:31:04.135Z,22.08
2022-08-19T15:33:37.304Z,21.23
2022-08-19T15:36:12.988Z,20.49
2022-08-19T15:38:46.118Z,19.84
2022-08-19T15:41:29.988Z,18.58
2022-08-19T15:44:05.875Z,18.25
2022-08-19T15:46:40.080Z,18.08
2022-08-19T15:49:07.042Z,17.93
2022-08-19T15:51:45.973Z,17.77
2022-08-19T15:54:19.975Z,17.60
2022-08-19T15:57:05.872Z,17.71
2022-08-19T16:00:01.548Z,17.55
2022-08-19T16:02:55.044Z,17.42
2022-08-19T16:05:47.989Z,17.64
2022-08-19T16:08:15.520Z,17.54
2022-08-19T16:10:49.047Z,17.50
2022-08-19T16:13:15.660Z,17.64
2022-08-19T16:15:56.002Z,17.67
2022-08-19T16:18:29.760Z,17.87
2022-08-19T16:21:03.373Z,17.97
2022-08-19T16:23:29.913Z,18.12
2022-08-19T16:26:02.979Z,18.24
2022-08-19T16:28:29.520Z,18.46
2022-08-19T16:31:03.093Z,18.58
2022-08-19T16:33:36.945Z,18.69
2022-08-19T16:36:07.358Z,18.69
2022-08-19T16:38:42.052Z,18.78
2022-08-19T16:41:16.012Z,18.78
2022-08-19T16:43:48.972Z,18.79
2022-08-19T16:46:18.573Z,18.84
2022-08-19T16:48:51.972Z,18.82
2022-08-19T16:51:18.881Z,18.91
2022-08-19T16:53:51.984Z,18.90
2022-08-19T16:56:25.970Z,18.75
2022-08-19T16:58:52.695Z,18.72
2022-08-19T17:01:27.041Z,18.72
2022-08-19T17:03:55.003Z,18.91
2022-08-19T17:06:32.940Z,18.95
2022-08-19T17:09:01.113Z,19.07
2022-08-19T17:11:35.950Z,19.04
2022-08-19T17:14:04.441Z,19.03
2022-08-19T17:16:43.961Z,19.05
2022-08-19T17:19:17.343Z,19.09
2022-08-19T17:21:50.991Z,19.15
2022-08-19T17:24:17.664Z,19.23
2022-08-19T17:26:50.999Z,19.22
2022-08-19T17:29:17.539Z,19.12
2022-08-19T17:31:50.962Z,19.12
2022-08-19T17:34:17.532Z,19.15
2022-08-19T17:36:50.964Z,19.02
2022-08-19T17:39:17.945Z,18.91
2022-08-19T17:41:50.954Z,18.87
2022-08-19T17:44:19.015Z,18.81
2022-08-19T17:46:53.082Z,18.74
2022-08-19T17:49:19.963Z,18.75
2022-08-19T17:51:53.947Z,18.77
2022-08-19T17:54:20.623Z,18.74
2022-08-19T17:56:54.146Z,18.74
2022-08-19T17:59:28.495Z,18.65
2022-08-19T18:01:58.015Z,18.62
2022-08-19T18:04:31.961Z,18.58
2022-08-19T18:07:04.964Z,18.70
2022-08-19T18:09:41.758Z,18.81
2022-08-19T18:12:16.944Z,19.03
2022-08-19T18:15:03.954Z,19.05
2022-08-19T18:17:37.929Z,19.06
2022-08-19T18:20:12.144Z,18.92
2022-08-19T18:22:46.960Z,18.92
2022-08-19T18:25:19.328Z,18.95
2022-08-19T18:27:52.986Z,18.93
2022-08-19T18:30:20.390Z,18.86
2022-08-19T18:32:56.028Z,18.73
2022-08-19T18:35:26.225Z,18.70
2022-08-19T18:37:52.773Z,18.73
2022-08-19T18:40:46.963Z,18.79
2022-08-19T18:43:22.960Z,18.79
2022-08-19T18:46:08.419Z,18.81
2022-08-19T18:49:00.943Z,18.90
2022-08-19T18:51:30.690Z,19.05
2022-08-19T18:54:04.963Z,19.06
2022-08-19T18:56:35.672Z,19.07
2022-08-19T18:59:02.333Z,19.08
2022-08-19T19:01:37.040Z,19.11
2022-08-19T19:04:05.062Z,19.08
2022-08-19T19:06:41.941Z,19.14
2022-08-19T19:09:09.776Z,19.14
2022-08-19T19:11:45.159Z,19.17
2022-08-19T19:14:23.173Z,19.20
2022-08-19T19:17:14.953Z,19.29
2022-08-19T19:19:43.013Z,19.29
2022-08-19T19:22:18.108Z,19.32
2022-08-19T19:24:44.856Z,19.35
2022-08-19T19:27:20.091Z,19.40
2022-08-19T19:29:51.684Z,19.35
2022-08-19T19:32:26.996Z,19.43
2022-08-19T19:34:54.028Z,19.39
2022-08-19T19:37:28.016Z,19.36
2022-08-19T19:39:54.619Z,19.39
2022-08-19T19:42:30.009Z,19.39
2022-08-19T19:44:56.785Z,19.35
2022-08-19T19:47:30.941Z,19.35
2022-08-19T19:50:14.248Z,19.32
2022-08-19T19:52:51.010Z,19.36
2022-08-19T19:55:21.041Z,19.35
2022-08-19T19:57:55.119Z,19.36
2022-08-19T20:00:29.124Z,19.30
2022-08-19T20:03:02.099Z,19.38
2022-08-19T20:05:35.101Z,19.36
2022-08-19T20:08:38.094Z,19.29
2022-08-19T20:11:05.984Z,19.31
2022-08-19T20:13:40.016Z,19.32
2022-08-19T20:16:14.085Z,19.36
2022-08-19T20:18:55.750Z,19.38
2022-08-19T20:21:24.647Z,19.08
2022-08-19T20:24:08.766Z,18.98
2022-08-19T20:26:36.305Z,19.06
2022-08-19T20:29:13.809Z,19.07
2022-08-19T20:31:57.758Z,19.17
2022-08-19T20:34:31.919Z,19.21
2022-08-19T20:36:58.460Z,19.26
2022-08-19T20:39:25.168Z,19.25
2022-08-19T20:41:58.102Z,19.25
2022-08-19T20:44:25.492Z,19.26
2022-08-19T20:47:03.387Z,19.23
2022-08-19T20:49:30.825Z,19.16
2022-08-19T20:52:04.937Z,19.27
2022-08-19T20:54:31.968Z,19.37
2022-08-19T20:56:58.931Z,19.46
2022-08-19T20:59:32.930Z,19.42
2022-08-19T21:01:59.671Z,19.46
2022-08-19T21:04:32.934Z,19.48
2022-08-19T21:06:59.656Z,19.36
2022-08-19T21:09:26.167Z,19.36
2022-08-19T21:11:59.920Z,19.42
2022-08-19T21:14:26.479Z,19.47
2022-08-19T21:16:59.928Z,19.49
2022-08-19T21:19:33.228Z,19.46
2022-08-19T21:22:06.957Z,19.53
2022-08-19T21:24:33.559Z,19.56
2022-08-19T21:27:06.907Z,19.69
2022-08-19T21:29:36.786Z,19.73
2022-08-19T21:32:10.909Z,19.73
2022-08-19T21:34:40.881Z,19.80
2022-08-19T21:37:24.741Z,19.86
2022-08-19T21:39:58.137Z,19.80
2022-08-19T21:42:31.941Z,19.74
2022-08-19T21:44:58.609Z,19.68
2022-08-19T21:47:31.927Z,19.67
2022-08-19T21:49:58.508Z,19.69
2022-08-19T21:52:32.925Z,19.69
2022-08-19T21:55:05.925Z,19.69
2022-08-19T21:57:41.415Z,19.71
2022-08-19T22:00:12.965Z,19.67
2022-08-19T22:02:46.937Z,19.83
2022-08-19T22:05:19.910Z,19.83
2022-08-19T22:07:54.022Z,19.86
2022-08-19T22:10:27.918Z,19.78
2022-08-19T22:12:54.511Z,19.71
2022-08-19T22:15:30.980Z,19.60
2022-08-19T22:18:11.063Z,19.65
2022-08-19T22:20:37.594Z,19.50
2022-08-19T22:23:12.906Z,19.53
2022-08-19T22:25:41.315Z,19.48
2022-08-19T22:28:19.114Z,19.49
2022-08-19T22:30:54.179Z,19.35
2022-08-19T22:33:28.910Z,19.35
2022-08-19T22:35:56.017Z,19.25
2022-08-19T22:38:28.972Z,19.24
2022-08-19T22:40:56.556Z,19.15
2022-08-19T22:43:30.890Z,19.05
2022-08-19T22:45:58.343Z,18.97
2022-08-19T22:48:32.912Z,18.86
2022-08-19T22:51:18.616Z,18.78
2022-08-19T22:53:52.933Z,18.67
2022-08-19T22:56:19.537Z,18.59
2022-08-19T22:58:53.901Z,18.61
2022-08-19T23:01:27.711Z,18.55
2022-08-19T23:04:04.034Z,18.54
2022-08-19T23:06:34.012Z,18.53
2022-08-19T23:09:07.895Z,18.56
2022-08-19T23:11:41.603Z,18.60
2022-08-19T23:14:15.891Z,18.74
2022-08-19T23:16:51.395Z,18.77
2022-08-19T23:19:31.908Z,18.78
2022-08-19T23:21:58.870Z,18.78
2022-08-19T23:24:32.932Z,18.84
2022-08-19T23:27:18.101Z,18.81
2022-08-19T23:30:09.917Z,18.87
2022-08-19T23:32:36.507Z,18.95
2022-08-19T23:35:09.918Z,18.95
2022-08-19T23:37:37.482Z,19.03
2022-08-19T23:40:12.990Z,18.97
2022-08-19T23:42:41.429Z,18.91
2022-08-19T23:45:15.912Z,18.91
2022-08-19T23:47:50.285Z,18.93
2022-08-19T23:50:23.878Z,18.96
2022-08-19T23:52:54.693Z,18.95
2022-08-19T23:55:22.639Z,19.05
2022-08-19T23:57:56.004Z,19.09
